createdAt,value
2024-04-22T00:01:06.290Z,100075.03
2024-04-22T00:03:33.984Z,100076.50
2024-04-22T00:06:04.043Z,100074.19
2024-04-22T00:08:31.862Z,100077.13
2024-04-22T00:11:06.550Z,100063.56
2024-04-22T00:13:37.663Z,100080.09
2024-04-22T00:16:08.418Z,100083.19
2024-04-22T00:18:35.804Z,100086.38
2024-04-22T00:21:06.590Z,100085.50
2024-04-22T00:23:34.513Z,100084.75
2024-04-22T00:26:05.002Z,100078.63
2024-04-22T00:28:32.930Z,100080.34
2024-04-22T00:31:06.168Z,100081.81
2024-04-22T00:33:34.022Z,100081.13
2024-04-22T00:36:04.094Z,100078.81
2024-04-22T00:38:32.000Z,100080.66
2024-04-22T00:41:02.512Z,100077.69
2024-04-22T00:43:30.356Z,100080.38
2024-04-22T00:46:01.188Z,100076.66
2024-04-22T00:48:31.902Z,100082.25
2024-04-22T00:51:03.543Z,100081.28
2024-04-22T00:53:32.722Z,100087.31
2024-04-22T00:56:03.938Z,100087.91
2024-04-22T00:58:32.272Z,100087.66
2024-04-22T01:01:03.533Z,100088.94
2024-04-22T01:03:37.859Z,100090.59
2024-04-22T01:06:05.906Z,100090.75
2024-04-22T01:08:36.430Z,100094.00
2024-04-22T01:11:04.672Z,100100.53
2024-04-22T01:13:35.322Z,100110.66
2024-04-22T01:16:03.583Z,100107.56
2024-04-22T01:18:36.968Z,100106.44
2024-04-22T01:21:05.291Z,100104.66
2024-04-22T01:23:38.777Z,100103.94
2024-04-22T01:26:09.092Z,100112.69
2024-04-22T01:28:39.608Z,100110.53
2024-04-22T01:31:07.575Z,100113.31
2024-04-22T01:33:38.114Z,100120.13
2024-04-22T01:36:06.361Z,100120.25
2024-04-22T01:38:38.912Z,100119.97
2024-04-22T01:41:06.770Z,100118.28
2024-04-22T01:43:38.743Z,100113.28
2024-04-22T01:46:06.285Z,100117.00
2024-04-22T01:48:36.488Z,100124.03
2024-04-22T01:51:04.751Z,100125.44
2024-04-22T01:53:35.234Z,100125.50
2024-04-22T01:56:05.612Z,100125.94
2024-04-22T01:58:36.096Z,100127.22
2024-04-22T02:01:09.147Z,100138.63
2024-04-22T02:03:39.721Z,100128.69
2024-04-22T02:06:07.577Z,100125.94
2024-04-22T02:08:37.505Z,100130.06
2024-04-22T02:11:07.640Z,100122.16
2024-04-22T02:13:37.675Z,100123.94
2024-04-22T02:16:05.779Z,100121.72
2024-04-22T02:18:36.897Z,100119.53
2024-04-22T02:21:04.580Z,100113.78
2024-04-22T02:23:35.034Z,100113.66
2024-04-22T02:26:02.567Z,100113.72
2024-04-22T02:28:35.710Z,100112.91
2024-04-22T02:31:03.714Z,100113.13
2024-04-22T02:33:33.919Z,100125.22
2024-04-22T02:36:01.762Z,100130.72
2024-04-22T02:38:32.150Z,100132.25
2024-04-22T02:40:59.444Z,100135.44
2024-04-22T02:43:29.937Z,100136.94
2024-04-22T02:46:00.450Z,100129.50
2024-04-22T02:48:30.365Z,100127.94
2024-04-22T02:51:02.373Z,100137.59
2024-04-22T02:53:35.820Z,100138.53
2024-04-22T02:56:03.185Z,100145.00
2024-04-22T02:58:33.846Z,100141.16
2024-04-22T03:01:06.573Z,100145.81
2024-04-22T03:03:36.695Z,100139.22
2024-04-22T03:06:05.092Z,100136.84
2024-04-22T03:08:35.494Z,100141.41
2024-04-22T03:11:03.321Z,100132.06
2024-04-22T03:13:33.325Z,100133.38
2024-04-22T03:16:04.002Z,100131.22
2024-04-22T03:18:34.666Z,100131.34
2024-04-22T03:21:02.509Z,100134.78
2024-04-22T03:23:32.915Z,100142.91
2024-04-22T03:26:00.694Z,100160.78
2024-04-22T03:28:30.669Z,100158.97
2024-04-22T03:30:58.109Z,100157.44
2024-04-22T03:33:31.170Z,100155.72
2024-04-22T03:36:02.023Z,100158.97
2024-04-22T03:38:32.661Z,100161.53
2024-04-22T03:41:03.157Z,100161.81
2024-04-22T03:43:33.621Z,100157.28
2024-04-22T03:46:19.800Z,100169.41
2024-04-22T03:49:05.072Z,100174.56
2024-04-22T03:51:35.503Z,100167.22
2024-04-22T03:54:06.022Z,100177.09
2024-04-22T03:56:36.465Z,100170.84
2024-04-22T03:59:04.280Z,100176.34
2024-04-22T04:01:34.961Z,100171.69
2024-04-22T04:04:05.699Z,100169.47
2024-04-22T04:06:35.800Z,100182.34
2024-04-22T04:09:03.181Z,100186.41
2024-04-22T04:11:38.490Z,100179.09
2024-04-22T04:14:06.529Z,100189.56
2024-04-22T04:16:36.871Z,100185.84
2024-04-22T04:19:06.891Z,100188.94
2024-04-22T04:21:37.336Z,100191.00
2024-04-22T04:24:05.408Z,100190.81
2024-04-22T04:26:35.919Z,100185.28
2024-04-22T04:29:03.227Z,100189.00
2024-04-22T04:31:33.216Z,100197.94
2024-04-22T04:34:00.568Z,100206.38
2024-04-22T04:36:33.665Z,100203.09
2024-04-22T04:39:01.002Z,100200.75
2024-04-22T04:41:31.448Z,100200.28
2024-04-22T04:43:59.227Z,100203.88
2024-04-22T04:46:29.715Z,100204.63
2024-04-22T04:48:57.600Z,100201.00
2024-04-22T04:51:28.024Z,100207.56
2024-04-22T04:53:58.463Z,100213.72
2024-04-22T04:56:28.459Z,100213.38
2024-04-22T04:58:56.273Z,100210.78
2024-04-22T05:01:27.260Z,100219.13
2024-04-22T05:03:59.109Z,100219.38
2024-04-22T05:06:26.457Z,100216.38
2024-04-22T05:08:56.388Z,100211.38
2024-04-22T05:11:26.406Z,100219.03
2024-04-22T05:13:56.626Z,100213.66
2024-04-22T05:16:24.478Z,100210.97
2024-04-22T05:18:55.487Z,100214.22
2024-04-22T05:21:23.292Z,100218.44
2024-04-22T05:23:53.812Z,100215.28
2024-04-22T05:26:21.594Z,100222.56
2024-04-22T05:28:54.655Z,100210.91
2024-04-22T05:31:22.516Z,100217.72
2024-04-22T05:34:08.272Z,100218.00
2024-04-22T05:36:38.179Z,100225.06
2024-04-22T05:39:08.572Z,100226.00
2024-04-22T05:41:36.715Z,100230.38
2024-04-22T05:44:09.570Z,100232.31
2024-04-22T05:46:39.810Z,100233.06
2024-04-22T05:49:10.302Z,100232.69
2024-04-22T05:51:40.779Z,100230.31
2024-04-22T05:54:11.562Z,100233.91
2024-04-22T05:56:39.443Z,100232.47
2024-04-22T05:59:12.261Z,100236.84
2024-04-22T06:01:40.388Z,100251.03
2024-04-22T06:04:11.439Z,100249.25
2024-04-22T06:06:39.166Z,100258.47
2024-04-22T06:09:10.854Z,100260.47
2024-04-22T06:11:39.886Z,100273.25
2024-04-22T06:14:13.991Z,100270.63
2024-04-22T06:16:41.450Z,100268.19
2024-04-22T06:19:11.860Z,100269.59
2024-04-22T06:21:40.121Z,100268.63
2024-04-22T06:24:10.297Z,100269.66
2024-04-22T06:26:37.649Z,100264.75
2024-04-22T06:29:08.152Z,100271.38
2024-04-22T06:31:38.700Z,100281.44
2024-04-22T06:34:08.890Z,100279.66
2024-04-22T06:36:36.722Z,100280.09
2024-04-22T06:39:07.015Z,100294.28
2024-04-22T06:41:34.342Z,100292.91
2024-04-22T06:44:04.845Z,100295.16
2024-04-22T06:46:33.612Z,100302.06
2024-04-22T06:49:06.939Z,100296.91
2024-04-22T06:51:35.163Z,100300.03
2024-04-22T06:54:05.185Z,100302.88
2024-04-22T06:56:32.531Z,100305.47
2024-04-22T06:59:03.232Z,100310.59
2024-04-22T07:01:38.306Z,100312.19
2024-04-22T07:04:13.182Z,100322.00
2024-04-22T07:06:40.897Z,100314.13
2024-04-22T07:09:17.919Z,100313.66
2024-04-22T07:11:45.416Z,100321.25
2024-04-22T07:14:15.703Z,100316.91
2024-04-22T07:16:43.390Z,100315.34
2024-04-22T07:19:17.812Z,100318.75
2024-04-22T07:21:45.554Z,100325.91
2024-04-22T07:24:15.469Z,100316.28
2024-04-22T07:26:43.655Z,100325.53
2024-04-22T07:29:14.238Z,100330.09
2024-04-22T07:31:46.396Z,100324.53
2024-04-22T07:34:20.268Z,100329.69
2024-04-22T07:36:48.771Z,100328.34
2024-04-22T07:39:19.014Z,100327.69
2024-04-22T07:41:46.374Z,100327.53
2024-04-22T07:44:16.864Z,100328.22
2024-04-22T07:46:45.516Z,100322.41
2024-04-22T07:49:18.929Z,100332.75
2024-04-22T07:51:49.524Z,100334.06
2024-04-22T07:54:19.876Z,100327.97
2024-04-22T07:56:50.213Z,100337.75
2024-04-22T07:59:21.974Z,100330.44
2024-04-22T08:01:51.063Z,100332.75
2024-04-22T08:04:21.676Z,100340.63
2024-04-22T08:06:54.084Z,100343.75
2024-04-22T08:09:25.448Z,100337.66
2024-04-22T08:11:55.049Z,100334.22
2024-04-22T08:14:25.023Z,100340.94
2024-04-22T08:16:52.484Z,100337.31
2024-04-22T08:19:22.980Z,100336.78
2024-04-22T08:21:52.944Z,100344.03
2024-04-22T08:24:25.338Z,100335.13
2024-04-22T08:26:54.869Z,100349.66
2024-04-22T08:29:25.492Z,100341.81
2024-04-22T08:31:53.591Z,100335.06
2024-04-22T08:34:24.044Z,100345.66
2024-04-22T08:36:54.838Z,100351.31
2024-04-22T08:39:25.306Z,100350.72
2024-04-22T08:41:52.701Z,100351.97
2024-04-22T08:44:22.770Z,100362.28
2024-04-22T08:46:50.672Z,100356.28
2024-04-22T08:49:21.143Z,100363.53
2024-04-22T08:51:54.096Z,100365.50
2024-04-22T08:54:28.123Z,100356.81
2024-04-22T08:56:56.843Z,100360.72
2024-04-22T08:59:37.246Z,100358.88
2024-04-22T09:02:08.464Z,100361.38
2024-04-22T09:04:39.213Z,100361.84
2024-04-22T09:07:09.369Z,100362.53
2024-04-22T09:09:56.690Z,100369.16
2024-04-22T09:12:30.538Z,100367.06
2024-04-22T09:15:04.849Z,100367.91
2024-04-22T09:17:33.049Z,100370.66
2024-04-22T09:20:04.549Z,100360.53
2024-04-22T09:22:32.215Z,100362.16
2024-04-22T09:25:05.722Z,100364.81
2024-04-22T09:27:34.950Z,100362.34
2024-04-22T09:30:08.149Z,100358.03
2024-04-22T09:32:37.213Z,100365.19
2024-04-22T09:35:19.077Z,100360.19
2024-04-22T09:37:49.866Z,100358.41
2024-04-22T09:40:23.312Z,100364.78
2024-04-22T09:42:52.876Z,100358.75
2024-04-22T09:45:24.565Z,100362.66
2024-04-22T09:47:54.126Z,100365.56
2024-04-22T09:50:24.877Z,100364.56
2024-04-22T09:52:53.275Z,100364.91
2024-04-22T09:55:29.708Z,100366.63
2024-04-22T09:58:00.582Z,100364.53
2024-04-22T10:00:31.466Z,100357.09
2024-04-22T10:02:59.706Z,100364.94
2024-04-22T10:05:31.301Z,100367.06
2024-04-22T10:07:59.509Z,100365.47
2024-04-22T10:10:32.782Z,100361.25
2024-04-22T10:13:09.408Z,100363.44
2024-04-22T10:15:40.029Z,100362.38
2024-04-22T10:18:11.868Z,100363.19
2024-04-22T10:20:43.187Z,100361.34
2024-04-22T10:23:13.603Z,100363.66
2024-04-22T10:25:47.449Z,100361.84
2024-04-22T10:28:15.419Z,100365.34
2024-04-22T10:30:45.354Z,100361.38
2024-04-22T10:33:12.884Z,100364.69
2024-04-22T10:35:43.393Z,100364.72
2024-04-22T10:38:11.224Z,100370.06
2024-04-22T10:40:41.211Z,100364.84
2024-04-22T10:43:11.727Z,100369.25
2024-04-22T10:45:42.359Z,100364.09
2024-04-22T10:48:15.801Z,100356.56
2024-04-22T10:50:51.962Z,100366.56
2024-04-22T10:53:20.897Z,100361.19
2024-04-22T10:55:51.863Z,100362.53
2024-04-22T10:58:24.184Z,100366.81
2024-04-22T11:00:56.510Z,100366.63
2024-04-22T11:03:24.098Z,100363.66
2024-04-22T11:05:54.603Z,100357.13
2024-04-22T11:08:22.115Z,100358.28
2024-04-22T11:10:52.950Z,100368.28
2024-04-22T11:13:23.718Z,100370.44
2024-04-22T11:15:53.682Z,100365.03
2024-04-22T11:18:22.536Z,100372.13
2024-04-22T11:20:52.762Z,100368.31
2024-04-22T11:23:20.173Z,100364.28
2024-04-22T11:25:50.967Z,100363.38
2024-04-22T11:28:19.663Z,100372.16
2024-04-22T11:30:53.360Z,100365.09
2024-04-22T11:33:24.076Z,100365.94
2024-04-22T11:35:54.889Z,100370.31
2024-04-22T11:38:24.113Z,100375.97
2024-04-22T11:40:54.654Z,100374.84
2024-04-22T11:43:23.519Z,100368.50
2024-04-22T11:45:57.240Z,100371.84
2024-04-22T11:48:24.641Z,100373.75
2024-04-22T11:50:54.596Z,100371.06
2024-04-22T11:53:25.546Z,100375.22
2024-04-22T11:55:56.944Z,100368.69
2024-04-22T11:58:26.584Z,100377.16
2024-04-22T12:00:59.321Z,100366.47
2024-04-22T12:03:27.187Z,100372.28
2024-04-22T12:05:57.179Z,100368.34
2024-04-22T12:08:24.609Z,100366.66
2024-04-22T12:10:55.156Z,100371.56
2024-04-22T12:13:22.538Z,100364.28
2024-04-22T12:15:56.101Z,100368.97
2024-04-22T12:18:26.801Z,100366.31
2024-04-22T12:20:58.409Z,100365.03
2024-04-22T12:23:27.276Z,100364.59
2024-04-22T12:25:57.600Z,100368.16
2024-04-22T12:28:26.099Z,100367.22
2024-04-22T12:30:56.335Z,100372.41
2024-04-22T12:33:34.588Z,100376.81
2024-04-22T12:36:04.654Z,100369.75
2024-04-22T12:38:32.599Z,100373.13
2024-04-22T12:41:02.592Z,100367.34
2024-04-22T12:43:33.926Z,100362.47
2024-04-22T12:46:01.729Z,100358.94
2024-04-22T12:48:50.424Z,100366.22
2024-04-22T12:51:20.392Z,100370.94
2024-04-22T12:53:47.941Z,100367.78
2024-04-22T12:56:17.819Z,100367.59
2024-04-22T12:58:47.871Z,100372.16
2024-04-22T13:01:18.196Z,100373.88
2024-04-22T13:03:50.932Z,100368.25
2024-04-22T13:06:21.410Z,100378.31
2024-04-22T13:08:51.955Z,100373.25
2024-04-22T13:11:24.143Z,100373.06
2024-04-22T13:13:54.638Z,100374.84
2024-04-22T13:16:24.670Z,100376.44
2024-04-22T13:18:57.892Z,100381.25
2024-04-22T13:21:28.571Z,100377.88
2024-04-22T13:23:56.465Z,100373.31
2024-04-22T13:26:26.921Z,100372.06
2024-04-22T13:28:55.864Z,100369.06
2024-04-22T13:31:36.297Z,100375.91
2024-04-22T13:34:13.833Z,100381.06
2024-04-22T13:36:44.284Z,100384.44
2024-04-22T13:39:11.663Z,100391.00
2024-04-22T13:41:41.933Z,100386.13
2024-04-22T13:44:10.140Z,100389.31
2024-04-22T13:46:40.746Z,100397.16
2024-04-22T13:49:08.077Z,100395.88
2024-04-22T13:51:41.311Z,100389.19
2024-04-22T13:54:09.331Z,100392.00
2024-04-22T13:56:39.781Z,100391.75
2024-04-22T13:59:07.759Z,100397.53
2024-04-22T14:01:39.911Z,100392.47
2024-04-22T14:04:07.524Z,100392.00
2024-04-22T14:06:37.925Z,100393.75
2024-04-22T14:09:09.442Z,100391.25
2024-04-22T14:11:39.806Z,100387.94
2024-04-22T14:14:07.190Z,100396.31
2024-04-22T14:16:37.648Z,100386.00
2024-04-22T14:19:05.011Z,100391.03
2024-04-22T14:21:35.983Z,100396.06
2024-04-22T14:24:03.308Z,100397.75
2024-04-22T14:26:35.913Z,100391.22
2024-04-22T14:29:03.376Z,100401.00
2024-04-22T14:31:33.425Z,100393.69
2024-04-22T14:34:02.868Z,100398.53
2024-04-22T14:36:33.372Z,100398.84
2024-04-22T14:39:01.248Z,100401.28
2024-04-22T14:41:31.229Z,100410.59
2024-04-22T14:44:01.751Z,100399.44
2024-04-22T14:46:32.300Z,100397.78
2024-04-22T14:48:59.695Z,100405.09
2024-04-22T14:51:30.277Z,100403.38
2024-04-22T14:53:58.250Z,100404.22
2024-04-22T14:56:28.761Z,100401.97
2024-04-22T14:58:56.973Z,100405.19
2024-04-22T15:01:29.880Z,100400.34
2024-04-22T15:03:57.512Z,100409.16
2024-04-22T15:06:28.676Z,100404.72
2024-04-22T15:08:57.148Z,100405.41
2024-04-22T15:11:30.244Z,100404.34
2024-04-22T15:13:58.997Z,100400.69
2024-04-22T15:16:32.317Z,100398.59
2024-04-22T15:18:59.707Z,100405.03
2024-04-22T15:21:30.134Z,100400.53
2024-04-22T15:23:58.016Z,100400.78
2024-04-22T15:26:27.997Z,100404.78
2024-04-22T15:28:55.496Z,100405.91
2024-04-22T15:31:26.090Z,100402.66
2024-04-22T15:33:56.746Z,100405.28
2024-04-22T15:36:26.793Z,100402.72
2024-04-22T15:38:58.805Z,100408.72
2024-04-22T15:41:28.744Z,100411.28
2024-04-22T15:43:56.749Z,100399.56
2024-04-22T15:46:29.585Z,100401.84
2024-04-22T15:48:59.801Z,100398.47
2024-04-22T15:51:30.228Z,100398.34
2024-04-22T15:53:57.523Z,100400.69
2024-04-22T15:56:27.516Z,100390.84
2024-04-22T15:58:54.903Z,100389.53
2024-04-22T16:01:25.470Z,100387.28
2024-04-22T16:03:52.928Z,100386.16
2024-04-22T16:06:25.472Z,100389.13
2024-04-22T16:08:52.785Z,100380.56
2024-04-22T16:11:23.282Z,100385.47
2024-04-22T16:13:50.637Z,100381.78
2024-04-22T16:16:21.172Z,100376.50
2024-04-22T16:18:49.061Z,100376.75
2024-04-22T16:21:19.985Z,100385.44
2024-04-22T16:23:49.984Z,100402.34
2024-04-22T16:26:20.893Z,100391.50
2024-04-22T16:28:48.775Z,100392.47
2024-04-22T16:31:18.824Z,100389.16
2024-04-22T16:33:46.247Z,100394.50
2024-04-22T16:36:16.202Z,100394.72
2024-04-22T16:38:43.518Z,100398.69
2024-04-22T16:41:16.168Z,100402.16
2024-04-22T16:43:44.041Z,100397.00
2024-04-22T16:46:14.437Z,100399.06
2024-04-22T16:48:41.882Z,100398.81
2024-04-22T16:51:11.893Z,100403.19
2024-04-22T16:53:39.268Z,100397.53
2024-04-22T16:56:09.527Z,100400.13
2024-04-22T16:58:40.047Z,100393.06
2024-04-22T17:01:10.622Z,100394.91
2024-04-22T17:03:37.937Z,100395.00
2024-04-22T17:06:08.533Z,100406.41
2024-04-22T17:08:35.927Z,100396.50
2024-04-22T17:11:09.521Z,100402.63
2024-04-22T17:13:40.053Z,100402.97
2024-04-22T17:16:10.815Z,100409.78
2024-04-22T17:18:38.535Z,100414.94
2024-04-22T17:21:08.966Z,100412.69
2024-04-22T17:23:37.317Z,100412.06
2024-04-22T17:26:07.927Z,100417.44
2024-04-22T17:28:35.811Z,100416.34
2024-04-22T17:31:12.270Z,100423.31
2024-04-22T17:33:40.049Z,100414.00
2024-04-22T17:36:10.854Z,100424.34
2024-04-22T17:38:38.726Z,100420.59
2024-04-22T17:41:08.680Z,100418.38
2024-04-22T17:43:36.119Z,100422.16
2024-04-22T17:46:07.655Z,100432.16
2024-04-22T17:48:37.902Z,100427.31
2024-04-22T17:51:08.511Z,100433.34
2024-04-22T17:53:36.167Z,100437.84
2024-04-22T17:56:06.344Z,100434.25
2024-04-22T17:58:36.006Z,100435.56
2024-04-22T18:01:06.116Z,100433.84
2024-04-22T18:03:34.218Z,100446.44
2024-04-22T18:06:07.349Z,100446.06
2024-04-22T18:08:34.659Z,100453.47
2024-04-22T18:11:05.293Z,100453.19
2024-04-22T18:13:33.209Z,100449.25
2024-04-22T18:16:03.667Z,100451.66
2024-04-22T18:18:31.075Z,100452.34
2024-04-22T18:21:03.412Z,100450.63
2024-04-22T18:23:33.356Z,100452.13
2024-04-22T18:26:09.807Z,100449.66
2024-04-22T18:28:41.721Z,100457.56
2024-04-22T18:31:12.282Z,100451.66
2024-04-22T18:33:40.246Z,100459.47
2024-04-22T18:36:10.839Z,100464.88
2024-04-22T18:38:41.916Z,100463.56
2024-04-22T18:41:11.971Z,100465.69
2024-04-22T18:43:39.348Z,100465.06
2024-04-22T18:46:09.885Z,100463.19
2024-04-22T18:48:38.357Z,100469.41
2024-04-22T18:51:08.901Z,100473.94
2024-04-22T18:53:36.281Z,100467.16
2024-04-22T18:56:09.202Z,100469.63
2024-04-22T18:58:38.430Z,100470.97
2024-04-22T19:01:11.082Z,100474.19
2024-04-22T19:03:38.489Z,100468.19
2024-04-22T19:06:09.079Z,100465.84
2024-04-22T19:08:36.448Z,100469.25
2024-04-22T19:11:09.390Z,100470.56
2024-04-22T19:13:36.898Z,100477.47
2024-04-22T19:16:07.437Z,100467.75
2024-04-22T19:18:34.843Z,100471.53
2024-04-22T19:21:05.022Z,100470.56
2024-04-22T19:23:32.304Z,100472.56
2024-04-22T19:26:02.845Z,100471.41
2024-04-22T19:28:33.332Z,100477.63
2024-04-22T19:31:03.381Z,100475.13
2024-04-22T19:33:30.837Z,100471.91
2024-04-22T19:36:01.099Z,100476.06
2024-04-22T19:38:29.205Z,100475.28
2024-04-22T19:40:59.206Z,100476.97
2024-04-22T19:43:27.031Z,100472.47
2024-04-22T19:46:00.466Z,100479.50
2024-04-22T19:48:28.373Z,100472.47
2024-04-22T19:50:58.300Z,100471.13
2024-04-22T19:53:25.649Z,100474.63
2024-04-22T19:55:56.492Z,100478.47
2024-04-22T19:58:24.559Z,100470.44
2024-04-22T20:00:54.626Z,100472.59
2024-04-22T20:03:24.723Z,100476.53
2024-04-22T20:05:56.265Z,100477.16
2024-04-22T20:08:24.143Z,100472.78
2024-04-22T20:10:54.722Z,100482.00
2024-04-22T20:13:22.120Z,100474.84
2024-04-22T20:16:15.011Z,100477.44
2024-04-22T20:18:54.910Z,100473.19
2024-04-22T20:21:26.235Z,100473.19
2024-04-22T20:23:55.142Z,100479.47
2024-04-22T20:26:26.492Z,100473.19
2024-04-22T20:28:54.640Z,100477.09
2024-04-22T20:31:25.313Z,100469.97
2024-04-22T20:33:56.948Z,100478.28
2024-04-22T20:36:28.109Z,100476.16
2024-04-22T20:38:56.949Z,100476.56
2024-04-22T20:41:27.279Z,100484.13
2024-04-22T20:43:55.535Z,100480.31
2024-04-22T20:46:25.788Z,100484.78
2024-04-22T20:48:54.336Z,100479.59
2024-04-22T20:51:26.938Z,100487.16
2024-04-22T20:53:54.266Z,100493.63
2024-04-22T20:56:24.199Z,100496.34
2024-04-22T20:58:51.546Z,100494.22
2024-04-22T21:01:21.547Z,100485.50
2024-04-22T21:03:48.908Z,100504.72
2024-04-22T21:06:22.136Z,100499.63
2024-04-22T21:08:52.502Z,100498.75
2024-04-22T21:11:22.563Z,100504.41
2024-04-22T21:13:58.184Z,100499.84
2024-04-22T21:16:28.982Z,100504.47
2024-04-22T21:19:07.129Z,100497.19
2024-04-22T21:21:42.586Z,100496.25
2024-04-22T21:24:13.723Z,100501.28
2024-04-22T21:26:44.271Z,100502.06
2024-04-22T21:29:12.947Z,100499.50
2024-04-22T21:31:43.425Z,100502.81
2024-04-22T21:34:11.056Z,100504.22
2024-04-22T21:36:41.042Z,100495.75
2024-04-22T21:39:08.351Z,100505.22
2024-04-22T21:41:41.477Z,100499.50
2024-04-22T21:44:12.533Z,100502.50
2024-04-22T21:46:42.498Z,100509.28
2024-04-22T21:49:10.443Z,100504.72
2024-04-22T21:51:40.844Z,100498.53
2024-04-22T21:54:10.195Z,100498.69
2024-04-22T21:56:39.777Z,100501.97
2024-04-22T21:59:44.939Z,100503.44
2024-04-22T22:02:54.465Z,100507.97
2024-04-22T22:05:59.666Z,100507.59
2024-04-22T22:08:29.297Z,100502.59
2024-04-22T22:10:59.583Z,100504.38
2024-04-22T22:13:30.276Z,100502.59
2024-04-22T22:15:57.544Z,100504.50
2024-04-22T22:18:27.845Z,100507.03
2024-04-22T22:21:01.675Z,100506.50
2024-04-22T22:23:31.334Z,100509.16
2024-04-22T22:26:01.874Z,100506.66
2024-04-22T22:28:31.825Z,100509.66
2024-04-22T22:30:59.165Z,100505.06
2024-04-22T22:33:29.561Z,100506.16
2024-04-22T22:35:57.393Z,100504.94
2024-04-22T22:38:30.713Z,100512.41
2024-04-22T22:41:00.736Z,100517.28
2024-04-22T22:43:31.165Z,100517.13
2024-04-22T22:45:59.064Z,100504.94
2024-04-22T22:48:28.978Z,100505.44
2024-04-22T22:50:56.842Z,100511.81
2024-04-22T22:53:26.815Z,100506.31
2024-04-22T22:55:54.795Z,100514.94
2024-04-22T22:58:27.449Z,100508.63
2024-04-22T23:00:54.806Z,100508.41
2024-04-22T23:03:25.230Z,100511.06
2024-04-22T23:05:53.224Z,100508.56
2024-04-22T23:08:23.619Z,100520.09
2024-04-22T23:10:51.522Z,100517.91
2024-04-22T23:13:21.454Z,100513.94
2024-04-22T23:15:51.913Z,100508.13
2024-04-22T23:18:22.410Z,100509.91
2024-04-22T23:20:50.206Z,100516.09
2024-04-22T23:23:20.196Z,100506.63
2024-04-22T23:25:47.540Z,100515.00
2024-04-22T23:28:17.970Z,100505.31
2024-04-22T23:30:45.756Z,100502.59
2024-04-22T23:33:18.377Z,100505.81
2024-04-22T23:35:46.229Z,100506.88
2024-04-22T23:38:16.722Z,100499.78
2024-04-22T23:40:44.537Z,100498.25
2024-04-22T23:43:14.957Z,100499.13
2024-04-22T23:45:42.731Z,100493.84
2024-04-22T23:48:12.724Z,100495.53
2024-04-22T23:50:42.679Z,100496.56
2024-04-22T23:53:13.165Z,100497.25
2024-04-22T23:55:41.051Z,100489.56
2024-04-22T23:58:11.487Z,100490.13
